sensor_id;sensor_type;location;lat;lon;timestamp;temperature;humidity
8664;DHT22;4369;47.842;13.096;2023-03-20T00:00:28;8.70;99.90
8664;DHT22;4369;47.842;13.096;2023-03-20T00:02:56;8.80;99.90
8664;DHT22;4369;47.842;13.096;2023-03-20T00:05:24;9.00;99.90
8664;DHT22;4369;47.842;13.096;2023-03-20T00:07:53;9.10;99.90
8664;DHT22;4369;47.842;13.096;2023-03-20T00:10:20;9.20;99.90
8664;DHT22;4369;47.842;13.096;2023-03-20T00:12:49;9.30;99.90
8664;DHT22;4369;47.842;13.096;2023-03-20T00:15:28;9.30;99.90
8664;DHT22;4369;47.842;13.096;2023-03-20T00:17:56;9.40;99.90
8664;DHT22;4369;47.842;13.096;2023-03-20T00:20:23;9.50;99.90
8664;DHT22;4369;47.842;13.096;2023-03-20T00:22:50;9.60;99.90
8664;DHT22;4369;47.842;13.096;2023-03-20T00:25:20;9.60;99.90
8664;DHT22;4369;47.842;13.096;2023-03-20T00:27:49;9.60;99.90
8664;DHT22;4369;47.842;13.096;2023-03-20T00:30:22;9.80;99.90
8664;DHT22;4369;47.842;13.096;2023-03-20T00:32:51;9.80;99.90
8664;DHT22;4369;47.842;13.096;2023-03-20T00:35:20;9.80;99.90
8664;DHT22;4369;47.842;13.096;2023-03-20T00:37:47;9.80;99.90
8664;DHT22;4369;47.842;13.096;2023-03-20T00:40:15;9.80;99.90
8664;DHT22;4369;47.842;13.096;2023-03-20T00:42:42;9.90;99.90
8664;DHT22;4369;47.842;13.096;2023-03-20T00:45:15;9.90;99.90
8664;DHT22;4369;47.842;13.096;2023-03-20T00:47:43;10.00;99.90
8664;DHT22;4369;47.842;13.096;2023-03-20T00:50:15;10.00;99.90
8664;DHT22;4369;47.842;13.096;2023-03-20T00:52:43;10.00;99.90
8664;DHT22;4369;47.842;13.096;2023-03-20T00:55:10;10.10;99.90
8664;DHT22;4369;47.842;13.096;2023-03-20T00:57:41;10.00;99.90
8664;DHT22;4369;47.842;13.096;2023-03-20T01:00:20;9.90;99.90
8664;DHT22;4369;47.842;13.096;2023-03-20T01:02:49;9.90;99.90
8664;DHT22;4369;47.842;13.096;2023-03-20T01:05:16;9.90;99.90
8664;DHT22;4369;47.842;13.096;2023-03-20T01:07:43;9.90;99.90
8664;DHT22;4369;47.842;13.096;2023-03-20T01:10:11;9.90;99.90
8664;DHT22;4369;47.842;13.096;2023-03-20T01:12:38;10.00;99.90
8664;DHT22;4369;47.842;13.096;2023-03-20T01:15:16;10.00;99.90
8664;DHT22;4369;47.842;13.096;2023-03-20T01:17:44;10.00;99.90
8664;DHT22;4369;47.842;13.096;2023-03-20T01:20:15;10.10;99.90
8664;DHT22;4369;47.842;13.096;2023-03-20T01:22:42;10.10;99.90
8664;DHT22;4369;47.842;13.096;2023-03-20T01:25:09;10.10;99.90
8664;DHT22;4369;47.842;13.096;2023-03-20T01:27:36;10.20;99.90
8664;DHT22;4369;47.842;13.096;2023-03-20T01:30:16;10.10;99.90
8664;DHT22;4369;47.842;13.096;2023-03-20T01:32:43;10.00;99.90
8664;DHT22;4369;47.842;13.096;2023-03-20T01:35:12;10.00;99.90
8664;DHT22;4369;47.842;13.096;2023-03-20T01:37:39;10.00;99.90
8664;DHT22;4369;47.842;13.096;2023-03-20T01:40:15;10.00;99.90
8664;DHT22;4369;47.842;13.096;2023-03-20T01:42:42;10.00;99.90
8664;DHT22;4369;47.842;13.096;2023-03-20T01:45:16;10.00;99.90
8664;DHT22;4369;47.842;13.096;2023-03-20T01:47:45;10.10;99.90
8664;DHT22;4369;47.842;13.096;2023-03-20T01:50:21;10.10;99.90
8664;DHT22;4369;47.842;13.096;2023-03-20T01:52:54;10.10;99.90
8664;DHT22;4369;47.842;13.096;2023-03-20T01:55:23;10.10;99.90
8664;DHT22;4369;47.842;13.096;2023-03-20T01:57:52;10.20;99.90
8664;DHT22;4369;47.842;13.096;2023-03-20T02:00:21;10.10;99.90
8664;DHT22;4369;47.842;13.096;2023-03-20T02:02:48;10.10;99.90
8664;DHT22;4369;47.842;13.096;2023-03-20T02:05:18;10.10;99.90
8664;DHT22;4369;47.842;13.096;2023-03-20T02:07:50;10.10;99.90
8664;DHT22;4369;47.842;13.096;2023-03-20T02:10:20;10.10;99.90
8664;DHT22;4369;47.842;13.096;2023-03-20T02:12:47;10.00;99.90
8664;DHT22;4369;47.842;13.096;2023-03-20T02:15:16;9.90;99.90
8664;DHT22;4369;47.842;13.096;2023-03-20T02:17:45;9.90;99.90
8664;DHT22;4369;47.842;13.096;2023-03-20T02:20:20;9.90;99.90
8664;DHT22;4369;47.842;13.096;2023-03-20T02:23:16;9.90;99.90
8664;DHT22;4369;47.842;13.096;2023-03-20T02:26:08;10.00;99.90
8664;DHT22;4369;47.842;13.096;2023-03-20T02:35:05;9.90;99.90
8664;DHT22;4369;47.842;13.096;2023-03-20T02:37:55;9.90;99.90
8664;DHT22;4369;47.842;13.096;2023-03-20T02:40:32;9.90;99.90
8664;DHT22;4369;47.842;13.096;2023-03-20T02:43:08;9.90;99.90
8664;DHT22;4369;47.842;13.096;2023-03-20T02:45:43;9.80;99.90
8664;DHT22;4369;47.842;13.096;2023-03-20T02:48:21;9.80;99.90
8664;DHT22;4369;47.842;13.096;2023-03-20T02:50:54;9.70;99.90
8664;DHT22;4369;47.842;13.096;2023-03-20T02:53:33;9.70;99.90
8664;DHT22;4369;47.842;13.096;2023-03-20T02:56:07;9.70;99.90
8664;DHT22;4369;47.842;13.096;2023-03-20T02:58:43;9.70;99.90
8664;DHT22;4369;47.842;13.096;2023-03-20T03:01:16;9.70;99.90
8664;DHT22;4369;47.842;13.096;2023-03-20T03:03:47;9.70;99.90
8664;DHT22;4369;47.842;13.096;2023-03-20T03:06:19;9.80;99.90
8664;DHT22;4369;47.842;13.096;2023-03-20T03:08:53;9.80;99.90
8664;DHT22;4369;47.842;13.096;2023-03-20T03:11:22;9.80;99.90
8664;DHT22;4369;47.842;13.096;2023-03-20T03:13:52;9.80;99.90
8664;DHT22;4369;47.842;13.096;2023-03-20T03:16:21;9.80;99.90
8664;DHT22;4369;47.842;13.096;2023-03-20T03:18:54;9.80;99.90
8664;DHT22;4369;47.842;13.096;2023-03-20T03:21:22;9.90;99.90
8664;DHT22;4369;47.842;13.096;2023-03-20T03:23:51;9.80;99.90
8664;DHT22;4369;47.842;13.096;2023-03-20T03:26:22;9.80;99.90
8664;DHT22;4369;47.842;13.096;2023-03-20T03:28:53;9.70;99.90
8664;DHT22;4369;47.842;13.096;2023-03-20T03:31:22;9.70;99.90
8664;DHT22;4369;47.842;13.096;2023-03-20T03:33:52;9.70;99.90
8664;DHT22;4369;47.842;13.096;2023-03-20T03:36:24;9.70;99.90
8664;DHT22;4369;47.842;13.096;2023-03-20T03:38:58;9.60;99.90
8664;DHT22;4369;47.842;13.096;2023-03-20T03:41:29;9.60;99.90
8664;DHT22;4369;47.842;13.096;2023-03-20T03:44:04;9.60;99.90
8664;DHT22;4369;47.842;13.096;2023-03-20T03:46:38;9.70;99.90
8664;DHT22;4369;47.842;13.096;2023-03-20T03:49:08;9.80;99.90
8664;DHT22;4369;47.842;13.096;2023-03-20T03:51:40;9.70;99.90
8664;DHT22;4369;47.842;13.096;2023-03-20T03:54:10;9.70;99.90
8664;DHT22;4369;47.842;13.096;2023-03-20T03:56:40;9.80;99.90
8664;DHT22;4369;47.842;13.096;2023-03-20T03:59:12;9.70;99.90
8664;DHT22;4369;47.842;13.096;2023-03-20T04:01:43;9.70;99.90
8664;DHT22;4369;47.842;13.096;2023-03-20T04:04:14;9.60;99.90
8664;DHT22;4369;47.842;13.096;2023-03-20T04:06:41;9.60;99.90
8664;DHT22;4369;47.842;13.096;2023-03-20T04:09:09;9.60;99.90
8664;DHT22;4369;47.842;13.096;2023-03-20T04:11:36;9.60;99.90
8664;DHT22;4369;47.842;13.096;2023-03-20T04:14:03;9.60;99.90
8664;DHT22;4369;47.842;13.096;2023-03-20T04:16:30;9.70;99.90
8664;DHT22;4369;47.842;13.096;2023-03-20T04:18:57;9.70;99.90
8664;DHT22;4369;47.842;13.096;2023-03-20T04:21:24;9.60;99.90
8664;DHT22;4369;47.842;13.096;2023-03-20T04:23:51;9.60;99.90
8664;DHT22;4369;47.842;13.096;2023-03-20T04:26:19;9.60;99.90
8664;DHT22;4369;47.842;13.096;2023-03-20T04:28:46;9.70;99.90
8664;DHT22;4369;47.842;13.096;2023-03-20T04:31:13;9.70;99.90
8664;DHT22;4369;47.842;13.096;2023-03-20T04:33:41;9.70;99.90
8664;DHT22;4369;47.842;13.096;2023-03-20T04:36:08;9.70;99.90
8664;DHT22;4369;47.842;13.096;2023-03-20T04:38:35;9.60;99.90
8664;DHT22;4369;47.842;13.096;2023-03-20T04:41:03;9.60;99.90
8664;DHT22;4369;47.842;13.096;2023-03-20T04:43:31;9.60;99.90
8664;DHT22;4369;47.842;13.096;2023-03-20T04:45:58;9.50;99.90
8664;DHT22;4369;47.842;13.096;2023-03-20T04:48:25;9.60;99.90
8664;DHT22;4369;47.842;13.096;2023-03-20T04:50:53;9.50;99.90
8664;DHT22;4369;47.842;13.096;2023-03-20T04:53:20;9.60;99.90
8664;DHT22;4369;47.842;13.096;2023-03-20T04:55:47;9.50;99.90
8664;DHT22;4369;47.842;13.096;2023-03-20T04:58:15;9.50;99.90
8664;DHT22;4369;47.842;13.096;2023-03-20T05:00:44;9.60;99.90
8664;DHT22;4369;47.842;13.096;2023-03-20T05:03:10;9.50;99.90
8664;DHT22;4369;47.842;13.096;2023-03-20T05:05:37;9.60;99.90
8664;DHT22;4369;47.842;13.096;2023-03-20T05:08:04;9.50;99.90
8664;DHT22;4369;47.842;13.096;2023-03-20T05:10:31;9.60;99.90
8664;DHT22;4369;47.842;13.096;2023-03-20T05:12:58;9.50;99.90
8664;DHT22;4369;47.842;13.096;2023-03-20T05:15:25;9.50;99.90
8664;DHT22;4369;47.842;13.096;2023-03-20T05:17:53;9.50;99.90
8664;DHT22;4369;47.842;13.096;2023-03-20T05:20:20;9.50;99.90
8664;DHT22;4369;47.842;13.096;2023-03-20T05:22:48;9.60;99.90
8664;DHT22;4369;47.842;13.096;2023-03-20T05:25:16;9.60;99.90
8664;DHT22;4369;47.842;13.096;2023-03-20T05:27:43;9.60;99.90
8664;DHT22;4369;47.842;13.096;2023-03-20T05:30:11;9.60;99.90
8664;DHT22;4369;47.842;13.096;2023-03-20T05:32:39;9.60;99.90
8664;DHT22;4369;47.842;13.096;2023-03-20T05:35:08;9.50;99.90
8664;DHT22;4369;47.842;13.096;2023-03-20T05:37:35;9.50;99.90
8664;DHT22;4369;47.842;13.096;2023-03-20T05:40:03;9.50;99.90
8664;DHT22;4369;47.842;13.096;2023-03-20T05:42:30;9.50;99.90
8664;DHT22;4369;47.842;13.096;2023-03-20T05:44:57;9.50;99.90
8664;DHT22;4369;47.842;13.096;2023-03-20T05:47:24;9.50;99.90
8664;DHT22;4369;47.842;13.096;2023-03-20T05:49:51;9.50;99.90
8664;DHT22;4369;47.842;13.096;2023-03-20T05:52:19;9.50;99.90
8664;DHT22;4369;47.842;13.096;2023-03-20T05:54:46;9.50;99.90
8664;DHT22;4369;47.842;13.096;2023-03-20T05:57:13;9.50;99.90
8664;DHT22;4369;47.842;13.096;2023-03-20T05:59:40;9.60;99.90
8664;DHT22;4369;47.842;13.096;2023-03-20T06:02:07;9.60;99.90
8664;DHT22;4369;47.842;13.096;2023-03-20T06:04:34;9.50;99.90
8664;DHT22;4369;47.842;13.096;2023-03-20T06:07:02;9.60;99.90
8664;DHT22;4369;47.842;13.096;2023-03-20T06:09:30;9.50;99.90
8664;DHT22;4369;47.842;13.096;2023-03-20T06:11:57;9.50;99.90
8664;DHT22;4369;47.842;13.096;2023-03-20T06:14:24;9.50;99.90
8664;DHT22;4369;47.842;13.096;2023-03-20T06:16:51;9.40;99.90
8664;DHT22;4369;47.842;13.096;2023-03-20T06:19:19;9.40;99.90
8664;DHT22;4369;47.842;13.096;2023-03-20T06:21:46;9.30;99.90
8664;DHT22;4369;47.842;13.096;2023-03-20T06:24:13;9.30;99.90
8664;DHT22;4369;47.842;13.096;2023-03-20T06:26:41;9.30;99.90
8664;DHT22;4369;47.842;13.096;2023-03-20T06:29:08;9.20;99.90
8664;DHT22;4369;47.842;13.096;2023-03-20T06:31:35;9.20;99.90
8664;DHT22;4369;47.842;13.096;2023-03-20T06:34:02;9.30;99.90
8664;DHT22;4369;47.842;13.096;2023-03-20T06:36:30;9.40;99.90
8664;DHT22;4369;47.842;13.096;2023-03-20T06:38:57;9.50;99.90
8664;DHT22;4369;47.842;13.096;2023-03-20T06:41:24;9.50;99.90
8664;DHT22;4369;47.842;13.096;2023-03-20T06:43:52;9.60;99.90
8664;DHT22;4369;47.842;13.096;2023-03-20T06:46:20;9.50;99.90
8664;DHT22;4369;47.842;13.096;2023-03-20T06:48:48;9.50;99.90
8664;DHT22;4369;47.842;13.096;2023-03-20T06:51:15;9.60;99.90
8664;DHT22;4369;47.842;13.096;2023-03-20T06:53:42;9.70;99.90
8664;DHT22;4369;47.842;13.096;2023-03-20T06:56:09;9.70;99.90
8664;DHT22;4369;47.842;13.096;2023-03-20T06:58:37;9.70;99.90
8664;DHT22;4369;47.842;13.096;2023-03-20T07:01:09;9.60;99.90
8664;DHT22;4369;47.842;13.096;2023-03-20T07:03:36;9.70;99.90
8664;DHT22;4369;47.842;13.096;2023-03-20T07:06:04;9.70;99.90
8664;DHT22;4369;47.842;13.096;2023-03-20T07:08:31;9.70;99.90
8664;DHT22;4369;47.842;13.096;2023-03-20T07:10:58;9.80;99.90
8664;DHT22;4369;47.842;13.096;2023-03-20T07:13:25;9.70;99.90
8664;DHT22;4369;47.842;13.096;2023-03-20T07:15:52;9.60;99.90
8664;DHT22;4369;47.842;13.096;2023-03-20T07:18:21;9.60;99.90
8664;DHT22;4369;47.842;13.096;2023-03-20T07:20:48;9.60;99.90
8664;DHT22;4369;47.842;13.096;2023-03-20T07:23:16;9.60;99.90
8664;DHT22;4369;47.842;13.096;2023-03-20T07:25:44;9.60;99.90
8664;DHT22;4369;47.842;13.096;2023-03-20T07:28:11;9.70;99.90
8664;DHT22;4369;47.842;13.096;2023-03-20T07:30:38;9.70;99.90
8664;DHT22;4369;47.842;13.096;2023-03-20T07:33:05;9.80;99.90
8664;DHT22;4369;47.842;13.096;2023-03-20T07:35:34;9.80;99.90
8664;DHT22;4369;47.842;13.096;2023-03-20T07:38:01;9.80;99.90
8664;DHT22;4369;47.842;13.096;2023-03-20T07:40:27;9.80;99.90
8664;DHT22;4369;47.842;13.096;2023-03-20T07:42:54;9.80;99.90
8664;DHT22;4369;47.842;13.096;2023-03-20T07:45:21;9.80;99.90
8664;DHT22;4369;47.842;13.096;2023-03-20T07:47:48;9.70;99.90
8664;DHT22;4369;47.842;13.096;2023-03-20T07:50:16;9.80;99.90
8664;DHT22;4369;47.842;13.096;2023-03-20T07:52:46;9.70;99.90
8664;DHT22;4369;47.842;13.096;2023-03-20T07:55:14;9.70;99.90
8664;DHT22;4369;47.842;13.096;2023-03-20T07:57:41;9.70;99.90
8664;DHT22;4369;47.842;13.096;2023-03-20T08:00:09;9.70;99.90
8664;DHT22;4369;47.842;13.096;2023-03-20T08:02:36;9.60;99.90
8664;DHT22;4369;47.842;13.096;2023-03-20T08:05:03;9.60;99.90
8664;DHT22;4369;47.842;13.096;2023-03-20T08:07:31;9.60;99.90
8664;DHT22;4369;47.842;13.096;2023-03-20T08:09:59;9.70;99.90
8664;DHT22;4369;47.842;13.096;2023-03-20T08:12:26;9.80;99.90
8664;DHT22;4369;47.842;13.096;2023-03-20T08:14:53;9.80;99.90
8664;DHT22;4369;47.842;13.096;2023-03-20T08:17:20;9.80;99.90
8664;DHT22;4369;47.842;13.096;2023-03-20T08:19:47;9.80;99.90
8664;DHT22;4369;47.842;13.096;2023-03-20T08:22:14;9.80;99.90
8664;DHT22;4369;47.842;13.096;2023-03-20T08:24:41;9.90;99.90
8664;DHT22;4369;47.842;13.096;2023-03-20T08:27:09;9.90;99.90
8664;DHT22;4369;47.842;13.096;2023-03-20T08:29:37;9.90;99.90
8664;DHT22;4369;47.842;13.096;2023-03-20T08:32:04;9.80;99.90
8664;DHT22;4369;47.842;13.096;2023-03-20T08:34:32;9.80;99.90
8664;DHT22;4369;47.842;13.096;2023-03-20T08:36:59;9.90;99.90
8664;DHT22;4369;47.842;13.096;2023-03-20T08:39:28;9.90;99.90
8664;DHT22;4369;47.842;13.096;2023-03-20T08:41:55;9.90;99.90
8664;DHT22;4369;47.842;13.096;2023-03-20T08:44:23;9.90;99.90
8664;DHT22;4369;47.842;13.096;2023-03-20T08:46:51;9.80;99.90
8664;DHT22;4369;47.842;13.096;2023-03-20T08:49:19;10.00;99.90
8664;DHT22;4369;47.842;13.096;2023-03-20T08:51:46;10.00;99.90
8664;DHT22;4369;47.842;13.096;2023-03-20T08:54:14;10.10;99.90
8664;DHT22;4369;47.842;13.096;2023-03-20T08:56:43;10.10;99.90
8664;DHT22;4369;47.842;13.096;2023-03-20T08:59:10;10.10;99.90
8664;DHT22;4369;47.842;13.096;2023-03-20T09:01:38;10.10;99.90
8664;DHT22;4369;47.842;13.096;2023-03-20T09:04:05;10.20;99.90
8664;DHT22;4369;47.842;13.096;2023-03-20T09:06:35;10.20;99.90
8664;DHT22;4369;47.842;13.096;2023-03-20T09:09:02;10.20;99.90
8664;DHT22;4369;47.842;13.096;2023-03-20T09:11:29;10.10;99.90
8664;DHT22;4369;47.842;13.096;2023-03-20T09:13:57;10.00;99.90
8664;DHT22;4369;47.842;13.096;2023-03-20T09:16:24;10.00;99.90
8664;DHT22;4369;47.842;13.096;2023-03-20T09:18:53;10.10;99.90
8664;DHT22;4369;47.842;13.096;2023-03-20T09:21:19;10.20;99.90
8664;DHT22;4369;47.842;13.096;2023-03-20T09:23:46;10.10;99.90
8664;DHT22;4369;47.842;13.096;2023-03-20T09:26:13;10.10;99.90
8664;DHT22;4369;47.842;13.096;2023-03-20T09:28:40;10.00;99.90
8664;DHT22;4369;47.842;13.096;2023-03-20T09:31:07;10.10;99.90
8664;DHT22;4369;47.842;13.096;2023-03-20T09:33:34;10.10;99.90
8664;DHT22;4369;47.842;13.096;2023-03-20T09:36:03;10.10;99.90
8664;DHT22;4369;47.842;13.096;2023-03-20T09:38:30;10.20;99.90
8664;DHT22;4369;47.842;13.096;2023-03-20T09:40:58;10.30;99.90
8664;DHT22;4369;47.842;13.096;2023-03-20T09:43:36;10.20;99.90
8664;DHT22;4369;47.842;13.096;2023-03-20T09:46:19;10.30;99.90
8664;DHT22;4369;47.842;13.096;2023-03-20T09:48:54;10.30;99.90
8664;DHT22;4369;47.842;13.096;2023-03-20T09:51:29;10.40;99.90
8664;DHT22;4369;47.842;13.096;2023-03-20T09:54:01;10.40;99.90
8664;DHT22;4369;47.842;13.096;2023-03-20T09:56:30;10.40;99.90
8664;DHT22;4369;47.842;13.096;2023-03-20T09:58:59;10.40;99.90
8664;DHT22;4369;47.842;13.096;2023-03-20T10:01:31;10.40;99.90
8664;DHT22;4369;47.842;13.096;2023-03-20T10:04:02;10.40;99.90
8664;DHT22;4369;47.842;13.096;2023-03-20T10:06:32;10.40;99.90
8664;DHT22;4369;47.842;13.096;2023-03-20T10:08:59;10.40;99.90
8664;DHT22;4369;47.842;13.096;2023-03-20T10:11:47;10.40;99.90
8664;DHT22;4369;47.842;13.096;2023-03-20T10:14:22;10.60;99.90
8664;DHT22;4369;47.842;13.096;2023-03-20T10:17:03;10.60;99.90
8664;DHT22;4369;47.842;13.096;2023-03-20T10:19:35;10.70;99.90
8664;DHT22;4369;47.842;13.096;2023-03-20T10:22:14;10.80;99.90
8664;DHT22;4369;47.842;13.096;2023-03-20T10:24:47;10.90;99.90
8664;DHT22;4369;47.842;13.096;2023-03-20T10:27:21;10.80;99.90
8664;DHT22;4369;47.842;13.096;2023-03-20T10:29:53;10.70;99.90
8664;DHT22;4369;47.842;13.096;2023-03-20T10:32:25;10.90;99.90
8664;DHT22;4369;47.842;13.096;2023-03-20T10:35:03;10.80;99.90
8664;DHT22;4369;47.842;13.096;2023-03-20T10:37:47;10.70;99.90
8664;DHT22;4369;47.842;13.096;2023-03-20T10:40:25;10.80;99.90
8664;DHT22;4369;47.842;13.096;2023-03-20T10:42:56;10.90;99.90
8664;DHT22;4369;47.842;13.096;2023-03-20T10:45:37;11.00;99.90
8664;DHT22;4369;47.842;13.096;2023-03-20T10:48:13;11.00;99.90
8664;DHT22;4369;47.842;13.096;2023-03-20T10:50:44;11.20;99.90
8664;DHT22;4369;47.842;13.096;2023-03-20T10:53:21;11.20;99.90
8664;DHT22;4369;47.842;13.096;2023-03-20T10:55:53;11.10;99.90
8664;DHT22;4369;47.842;13.096;2023-03-20T10:58:25;11.10;99.90
8664;DHT22;4369;47.842;13.096;2023-03-20T11:00:54;11.30;99.90
8664;DHT22;4369;47.842;13.096;2023-03-20T11:03:25;11.40;99.90
8664;DHT22;4369;47.842;13.096;2023-03-20T11:05:55;11.50;99.90
8664;DHT22;4369;47.842;13.096;2023-03-20T11:08:30;11.80;99.90
8664;DHT22;4369;47.842;13.096;2023-03-20T11:11:01;12.00;99.90
8664;DHT22;4369;47.842;13.096;2023-03-20T11:13:30;12.10;99.90
8664;DHT22;4369;47.842;13.096;2023-03-20T11:16:15;12.10;99.90
8664;DHT22;4369;47.842;13.096;2023-03-20T11:18:43;12.10;99.90
8664;DHT22;4369;47.842;13.096;2023-03-20T11:21:15;12.40;99.90
8664;DHT22;4369;47.842;13.096;2023-03-20T11:23:45;12.30;99.90
8664;DHT22;4369;47.842;13.096;2023-03-20T11:26:14;12.30;99.90
8664;DHT22;4369;47.842;13.096;2023-03-20T11:28:47;12.60;99.90
8664;DHT22;4369;47.842;13.096;2023-03-20T11:31:18;12.90;99.90
8664;DHT22;4369;47.842;13.096;2023-03-20T11:33:51;12.70;99.90
8664;DHT22;4369;47.842;13.096;2023-03-20T11:36:22;12.60;99.90
8664;DHT22;4369;47.842;13.096;2023-03-20T11:38:52;12.50;99.90
8664;DHT22;4369;47.842;13.096;2023-03-20T11:41:26;12.50;99.90
8664;DHT22;4369;47.842;13.096;2023-03-20T11:43:53;12.50;99.90
8664;DHT22;4369;47.842;13.096;2023-03-20T11:46:21;12.80;99.90
8664;DHT22;4369;47.842;13.096;2023-03-20T11:49:05;13.10;99.90
8664;DHT22;4369;47.842;13.096;2023-03-20T11:51:34;13.20;99.90
8664;DHT22;4369;47.842;13.096;2023-03-20T11:54:05;13.50;99.90
8664;DHT22;4369;47.842;13.096;2023-03-20T11:56:34;13.70;99.90
8664;DHT22;4369;47.842;13.096;2023-03-20T11:59:05;13.90;99.90
8664;DHT22;4369;47.842;13.096;2023-03-20T12:01:40;13.90;99.90
8664;DHT22;4369;47.842;13.096;2023-03-20T12:04:13;14.20;99.90
8664;DHT22;4369;47.842;13.096;2023-03-20T12:06:47;14.50;99.90
8664;DHT22;4369;47.842;13.096;2023-03-20T12:09:30;14.20;99.90
8664;DHT22;4369;47.842;13.096;2023-03-20T12:11:59;14.10;99.90
8664;DHT22;4369;47.842;13.096;2023-03-20T12:14:34;13.60;99.90
8664;DHT22;4369;47.842;13.096;2023-03-20T12:20:04;13.70;99.90
8664;DHT22;4369;47.842;13.096;2023-03-20T12:22:36;14.30;99.90
8664;DHT22;4369;47.842;13.096;2023-03-20T12:25:15;14.50;99.90
8664;DHT22;4369;47.842;13.096;2023-03-20T12:27:48;14.60;99.90
8664;DHT22;4369;47.842;13.096;2023-03-20T12:30:25;14.60;99.90
8664;DHT22;4369;47.842;13.096;2023-03-20T12:32:59;14.80;99.90
8664;DHT22;4369;47.842;13.096;2023-03-20T12:35:28;14.50;99.90
8664;DHT22;4369;47.842;13.096;2023-03-20T12:37:55;14.50;99.90
8664;DHT22;4369;47.842;13.096;2023-03-20T12:40:35;14.20;99.90
8664;DHT22;4369;47.842;13.096;2023-03-20T12:43:12;14.00;99.90
8664;DHT22;4369;47.842;13.096;2023-03-20T12:45:45;14.30;99.90
8664;DHT22;4369;47.842;13.096;2023-03-20T12:48:32;14.60;99.90
8664;DHT22;4369;47.842;13.096;2023-03-20T12:51:06;14.50;99.90
8664;DHT22;4369;47.842;13.096;2023-03-20T12:53:45;14.30;99.90
8664;DHT22;4369;47.842;13.096;2023-03-20T12:56:30;14.20;99.90
8664;DHT22;4369;47.842;13.096;2023-03-20T12:59:06;14.30;99.90
8664;DHT22;4369;47.842;13.096;2023-03-20T13:01:39;14.10;99.90
8664;DHT22;4369;47.842;13.096;2023-03-20T13:04:33;14.20;99.90
8664;DHT22;4369;47.842;13.096;2023-03-20T13:07:15;14.00;99.90
8664;DHT22;4369;47.842;13.096;2023-03-20T13:09:54;13.90;99.90
8664;DHT22;4369;47.842;13.096;2023-03-20T13:12:34;13.90;99.90
8664;DHT22;4369;47.842;13.096;2023-03-20T13:15:16;13.60;99.90
8664;DHT22;4369;47.842;13.096;2023-03-20T13:17:49;13.50;99.90
8664;DHT22;4369;47.842;13.096;2023-03-20T13:20:24;13.60;99.90
8664;DHT22;4369;47.842;13.096;2023-03-20T13:23:05;13.50;99.90
8664;DHT22;4369;47.842;13.096;2023-03-20T13:28:34;13.50;99.90
8664;DHT22;4369;47.842;13.096;2023-03-20T13:31:14;13.40;99.90
8664;DHT22;4369;47.842;13.096;2023-03-20T13:33:49;13.50;99.90
8664;DHT22;4369;47.842;13.096;2023-03-20T13:36:27;13.80;99.90
8664;DHT22;4369;47.842;13.096;2023-03-20T13:38:59;14.00;99.90
8664;DHT22;4369;47.842;13.096;2023-03-20T13:41:28;14.10;99.90
8664;DHT22;4369;47.842;13.096;2023-03-20T13:43:59;14.50;99.90
8664;DHT22;4369;47.842;13.096;2023-03-20T13:46:32;14.90;99.90
8664;DHT22;4369;47.842;13.096;2023-03-20T13:49:04;15.10;99.90
8664;DHT22;4369;47.842;13.096;2023-03-20T13:51:37;15.60;99.90
8664;DHT22;4369;47.842;13.096;2023-03-20T13:54:14;15.40;99.90
8664;DHT22;4369;47.842;13.096;2023-03-20T13:56:53;15.40;99.90
8664;DHT22;4369;47.842;13.096;2023-03-20T13:59:53;15.00;99.90
8664;DHT22;4369;47.842;13.096;2023-03-20T14:02:37;15.00;99.90
8664;DHT22;4369;47.842;13.096;2023-03-20T14:05:11;14.50;99.90
8664;DHT22;4369;47.842;13.096;2023-03-20T14:07:42;14.30;99.90
8664;DHT22;4369;47.842;13.096;2023-03-20T14:10:35;14.40;99.90
8664;DHT22;4369;47.842;13.096;2023-03-20T14:13:05;14.40;99.90
8664;DHT22;4369;47.842;13.096;2023-03-20T14:15:35;14.70;99.90
8664;DHT22;4369;47.842;13.096;2023-03-20T14:18:05;14.90;99.90
8664;DHT22;4369;47.842;13.096;2023-03-20T14:20:34;14.80;99.90
8664;DHT22;4369;47.842;13.096;2023-03-20T14:23:02;15.10;99.90
8664;DHT22;4369;47.842;13.096;2023-03-20T14:25:34;15.00;99.90
8664;DHT22;4369;47.842;13.096;2023-03-20T14:28:07;15.20;99.90
8664;DHT22;4369;47.842;13.096;2023-03-20T14:30:50;16.10;99.90
8664;DHT22;4369;47.842;13.096;2023-03-20T14:33:41;16.20;99.50
8664;DHT22;4369;47.842;13.096;2023-03-20T14:36:27;16.10;99.30
8664;DHT22;4369;47.842;13.096;2023-03-20T14:39:04;15.70;99.70
8664;DHT22;4369;47.842;13.096;2023-03-20T14:41:38;15.00;99.90
8664;DHT22;4369;47.842;13.096;2023-03-20T14:44:21;14.60;99.90
8664;DHT22;4369;47.842;13.096;2023-03-20T14:46:57;14.60;99.90
8664;DHT22;4369;47.842;13.096;2023-03-20T14:49:44;14.60;99.90
8664;DHT22;4369;47.842;13.096;2023-03-20T14:52:28;14.60;99.90
8664;DHT22;4369;47.842;13.096;2023-03-20T14:55:14;14.60;99.90
8664;DHT22;4369;47.842;13.096;2023-03-20T14:57:53;14.60;99.90
8664;DHT22;4369;47.842;13.096;2023-03-20T15:00:21;14.50;99.90
8664;DHT22;4369;47.842;13.096;2023-03-20T15:02:53;14.60;99.90
8664;DHT22;4369;47.842;13.096;2023-03-20T15:05:25;14.40;99.90
8664;DHT22;4369;47.842;13.096;2023-03-20T15:07:55;14.20;99.90
8664;DHT22;4369;47.842;13.096;2023-03-20T15:10:22;14.10;99.90
8664;DHT22;4369;47.842;13.096;2023-03-20T15:12:50;14.00;99.90
8664;DHT22;4369;47.842;13.096;2023-03-20T15:15:25;13.80;99.90
8664;DHT22;4369;47.842;13.096;2023-03-20T15:17:54;13.80;99.90
8664;DHT22;4369;47.842;13.096;2023-03-20T15:20:23;13.70;99.90
8664;DHT22;4369;47.842;13.096;2023-03-20T15:22:51;13.70;99.90
8664;DHT22;4369;47.842;13.096;2023-03-20T15:25:20;13.70;99.90
8664;DHT22;4369;47.842;13.096;2023-03-20T15:27:48;13.70;99.90
8664;DHT22;4369;47.842;13.096;2023-03-20T15:30:18;13.80;99.90
8664;DHT22;4369;47.842;13.096;2023-03-20T15:32:47;13.90;99.90
8664;DHT22;4369;47.842;13.096;2023-03-20T15:35:18;13.90;99.90
8664;DHT22;4369;47.842;13.096;2023-03-20T15:37:49;13.90;99.90
8664;DHT22;4369;47.842;13.096;2023-03-20T15:40:22;13.90;99.90
8664;DHT22;4369;47.842;13.096;2023-03-20T15:42:53;13.90;99.90
8664;DHT22;4369;47.842;13.096;2023-03-20T15:45:25;13.90;99.90
8664;DHT22;4369;47.842;13.096;2023-03-20T15:47:59;13.80;99.90
8664;DHT22;4369;47.842;13.096;2023-03-20T15:50:30;13.70;99.90
8664;DHT22;4369;47.842;13.096;2023-03-20T15:52:57;13.50;99.90
8664;DHT22;4369;47.842;13.096;2023-03-20T15:55:24;13.40;99.90
8664;DHT22;4369;47.842;13.096;2023-03-20T15:57:55;13.30;99.90
8664;DHT22;4369;47.842;13.096;2023-03-20T16:00:27;13.10;99.90
8664;DHT22;4369;47.842;13.096;2023-03-20T16:02:55;13.10;99.90
8664;DHT22;4369;47.842;13.096;2023-03-20T16:05:24;13.10;99.90
8664;DHT22;4369;47.842;13.096;2023-03-20T16:07:53;13.20;99.90
8664;DHT22;4369;47.842;13.096;2023-03-20T16:10:27;13.20;99.90
8664;DHT22;4369;47.842;13.096;2023-03-20T16:12:54;12.90;99.90
8664;DHT22;4369;47.842;13.096;2023-03-20T16:15:24;12.70;99.90
8664;DHT22;4369;47.842;13.096;2023-03-20T16:17:58;12.70;99.90
8664;DHT22;4369;47.842;13.096;2023-03-20T16:20:28;12.60;99.90
8664;DHT22;4369;47.842;13.096;2023-03-20T16:23:00;12.60;99.90
8664;DHT22;4369;47.842;13.096;2023-03-20T16:25:28;12.50;99.90
8664;DHT22;4369;47.842;13.096;2023-03-20T16:27:55;12.50;99.90